createdAt,value
2019-01-20T00:01:11.480Z,98719.89
2019-01-20T00:03:39.927Z,98720.50
2019-01-20T00:06:08.383Z,98725.05
2019-01-20T00:08:36.752Z,98719.87
2019-01-20T00:11:05.680Z,98720.92
2019-01-20T00:13:34.120Z,98725.84
2019-01-20T00:16:02.741Z,98722.46
2019-01-20T00:18:31.353Z,98723.04
2019-01-20T00:20:59.736Z,98723.16
2019-01-20T00:23:28.179Z,98719.30
2019-01-20T00:25:56.557Z,98726.83
2019-01-20T00:28:24.927Z,98726.59
2019-01-20T00:30:53.315Z,98724.06
2019-01-20T00:33:21.682Z,98722.11
2019-01-20T00:35:50.141Z,98721.73
2019-01-20T00:38:18.514Z,98724.47
2019-01-20T00:40:46.898Z,98720.63
2019-01-20T00:43:15.272Z,98721.31
2019-01-20T00:45:43.661Z,98727.09
2019-01-20T00:48:12.200Z,98720.22
2019-01-20T00:50:40.580Z,98724.28
2019-01-20T00:53:08.956Z,98720.44
2019-01-20T00:55:37.318Z,98714.06
2019-01-20T00:58:05.775Z,98716.39
2019-01-20T01:00:34.504Z,98716.85
2019-01-20T01:03:02.945Z,98713.97
2019-01-20T01:05:31.756Z,98715.12
2019-01-20T01:08:00.387Z,98714.77
2019-01-20T01:10:28.927Z,98713.17
2019-01-20T01:12:57.856Z,98714.70
2019-01-20T01:15:26.229Z,98710.86
2019-01-20T01:17:54.609Z,98725.82
2019-01-20T01:20:22.984Z,98724.72
2019-01-20T01:22:51.372Z,98723.41
2019-01-20T01:25:19.741Z,98727.58
2019-01-20T01:27:48.196Z,98729.00
2019-01-20T01:30:19.448Z,98730.42
2019-01-20T01:32:47.907Z,98726.08
2019-01-20T01:35:16.340Z,98730.14
2019-01-20T01:37:44.730Z,98730.72
2019-01-20T01:40:15.244Z,98730.47
2019-01-20T01:42:43.703Z,98729.26
2019-01-20T01:45:14.912Z,98728.41
2019-01-20T01:47:43.369Z,98724.66
2019-01-20T01:50:12.784Z,98724.88
2019-01-20T01:52:41.302Z,98723.64
2019-01-20T01:55:10.915Z,98733.82
2019-01-20T01:57:39.299Z,98726.98
2019-01-20T02:00:14.176Z,98729.23
2019-01-20T02:02:42.629Z,98728.87
2019-01-20T02:05:11.073Z,98730.41
2019-01-20T02:07:39.461Z,98729.66
2019-01-20T02:10:11.212Z,98732.29
2019-01-20T02:12:39.601Z,98729.37
2019-01-20T02:15:10.512Z,98724.67
2019-01-20T02:17:38.968Z,98731.36
2019-01-20T02:20:10.469Z,98730.15
2019-01-20T02:22:38.996Z,98740.44
2019-01-20T02:25:07.496Z,98734.77
2019-01-20T02:27:35.924Z,98742.03
2019-01-20T02:30:07.346Z,98735.95
2019-01-20T02:32:35.876Z,98740.00
2019-01-20T02:35:05.575Z,98738.40
2019-01-20T02:37:33.944Z,98741.24
2019-01-20T02:40:02.480Z,98741.24
2019-01-20T02:42:31.971Z,98742.17
2019-01-20T02:45:00.470Z,98741.34
2019-01-20T02:47:28.841Z,98741.45
2019-01-20T02:49:57.227Z,98739.84
2019-01-20T02:52:25.602Z,98739.48
2019-01-20T02:54:53.983Z,98741.63
2019-01-20T02:57:22.358Z,98738.27
2019-01-20T02:59:50.745Z,98740.91
2019-01-20T03:02:19.120Z,98744.11
2019-01-20T03:04:47.493Z,98747.67
2019-01-20T03:07:15.864Z,98746.06
2019-01-20T03:09:44.248Z,98741.65
2019-01-20T03:12:12.622Z,98745.67
2019-01-20T03:14:40.997Z,98742.68
2019-01-20T03:17:09.378Z,98745.31
2019-01-20T03:19:37.743Z,98740.90
2019-01-20T03:22:06.494Z,98737.88
2019-01-20T03:24:34.859Z,98736.56
2019-01-20T03:27:03.234Z,98737.05
2019-01-20T03:29:31.605Z,98739.40
2019-01-20T03:32:00.001Z,98731.50
2019-01-20T03:34:28.352Z,98732.45
2019-01-20T03:36:56.733Z,98736.41
2019-01-20T03:39:25.104Z,98739.04
2019-01-20T03:41:53.485Z,98741.08
2019-01-20T03:44:21.859Z,98735.09
2019-01-20T03:46:50.235Z,98734.70
2019-01-20T03:49:18.611Z,98735.09
2019-01-20T03:51:46.990Z,98733.28
2019-01-20T03:54:15.528Z,98732.92
2019-01-20T03:56:43.909Z,98733.77
2019-01-20T03:59:12.282Z,98733.28
2019-01-20T04:01:40.656Z,98728.51
2019-01-20T04:04:09.081Z,98731.03
2019-01-20T04:06:37.407Z,98732.25
2019-01-20T04:09:07.290Z,98735.24
2019-01-20T04:11:35.839Z,98732.61
2019-01-20T04:14:04.441Z,98731.86
2019-01-20T04:16:33.046Z,98733.28
2019-01-20T04:19:01.419Z,98732.56
2019-01-20T04:21:29.806Z,98731.24
2019-01-20T04:23:58.177Z,98729.43
2019-01-20T04:26:26.566Z,98729.43
2019-01-20T04:28:54.931Z,98729.22
2019-01-20T04:31:23.301Z,98722.28
2019-01-20T04:33:51.696Z,98728.77
2019-01-20T04:36:20.059Z,98730.47
2019-01-20T04:38:48.434Z,98733.10
2019-01-20T04:41:16.808Z,98727.91
2019-01-20T04:43:45.194Z,98729.61
2019-01-20T04:46:13.591Z,98718.80
2019-01-20T04:48:41.937Z,98720.00
2019-01-20T04:51:10.366Z,98717.77
2019-01-20T04:53:39.113Z,98719.55
2019-01-20T04:56:07.487Z,98723.50
2019-01-20T04:58:35.871Z,98723.14
2019-01-20T05:01:04.408Z,98729.16
2019-01-20T05:03:33.380Z,98728.02
2019-01-20T05:06:01.745Z,98730.64
2019-01-20T05:08:30.125Z,98727.08
2019-01-20T05:10:58.498Z,98733.92
2019-01-20T05:13:26.962Z,98731.03
2019-01-20T05:15:55.326Z,98737.13
2019-01-20T05:18:23.702Z,98737.52
2019-01-20T05:20:52.066Z,98741.83
2019-01-20T05:23:20.441Z,98740.05
2019-01-20T05:25:48.816Z,98741.26
2019-01-20T05:28:17.195Z,98739.19
2019-01-20T05:30:45.558Z,98746.92
2019-01-20T05:33:13.940Z,98743.43
2019-01-20T05:35:42.302Z,98736.38
2019-01-20T05:38:10.683Z,98742.58
2019-01-20T05:40:39.050Z,98738.84
2019-01-20T05:43:07.431Z,98736.47
2019-01-20T05:45:35.805Z,98734.58
2019-01-20T05:48:04.169Z,98736.47
2019-01-20T05:50:32.551Z,98735.64
2019-01-20T05:53:00.914Z,98736.36
2019-01-20T05:55:29.305Z,98738.42
2019-01-20T05:57:57.673Z,98740.70
2019-01-20T06:00:28.258Z,98743.13
2019-01-20T06:02:56.625Z,98744.44
2019-01-20T06:05:25.004Z,98751.03
2019-01-20T06:07:53.445Z,98751.39
2019-01-20T06:10:21.820Z,98754.52
2019-01-20T06:12:54.210Z,98762.11
2019-01-20T06:15:21.867Z,98761.75
2019-01-20T06:17:50.235Z,98764.72
2019-01-20T06:20:18.855Z,98766.19
2019-01-20T06:22:47.226Z,98763.66
2019-01-20T06:25:15.601Z,98767.43
2019-01-20T06:27:43.982Z,98768.46
2019-01-20T06:30:15.583Z,98771.66
2019-01-20T06:32:43.948Z,98773.94
2019-01-20T06:35:12.331Z,98777.04
2019-01-20T06:37:40.702Z,98779.96
2019-01-20T06:40:09.921Z,98782.59
2019-01-20T06:42:38.296Z,98786.55
2019-01-20T06:45:09.511Z,98790.75
2019-01-20T06:47:37.877Z,98788.58
2019-01-20T06:50:14.718Z,98792.36
2019-01-20T06:52:43.081Z,98789.72
2019-01-20T06:55:12.599Z,98793.85
2019-01-20T06:57:41.036Z,98803.83
2019-01-20T07:00:24.823Z,98808.45
2019-01-20T07:02:53.193Z,98806.28
2019-01-20T07:05:21.647Z,98810.41
2019-01-20T07:07:50.253Z,98813.61
2019-01-20T07:10:19.176Z,98812.13
2019-01-20T07:12:47.548Z,98822.25
2019-01-20T07:15:20.542Z,98820.57
2019-01-20T07:17:48.917Z,98824.63
2019-01-20T07:20:17.636Z,98820.28
2019-01-20T07:22:46.009Z,98821.99
2019-01-20T07:25:14.481Z,98827.37
2019-01-20T07:27:42.854Z,98830.92
2019-01-20T07:30:13.961Z,98833.72
2019-01-20T07:32:43.332Z,98827.52
2019-01-20T07:35:12.446Z,98841.00
2019-01-20T07:37:40.827Z,98845.61
2019-01-20T07:40:12.383Z,98844.19
2019-01-20T07:42:40.772Z,98844.29
2019-01-20T07:45:11.478Z,98847.18
2019-01-20T07:47:39.920Z,98851.13
2019-01-20T07:50:11.698Z,98849.14
2019-01-20T07:52:40.084Z,98856.02
2019-01-20T07:55:09.700Z,98854.20
2019-01-20T07:57:38.131Z,98861.09
2019-01-20T08:00:23.840Z,98864.73
2019-01-20T08:02:52.219Z,98871.41
2019-01-20T08:05:21.133Z,98869.33
2019-01-20T08:07:49.661Z,98875.17
2019-01-20T08:10:20.812Z,98868.69
2019-01-20T08:12:49.195Z,98880.08
2019-01-20T08:15:18.227Z,98870.00
2019-01-20T08:17:46.603Z,98872.82
2019-01-20T08:20:20.320Z,98877.70
2019-01-20T08:22:48.873Z,98879.31
2019-01-20T08:25:18.781Z,98877.53
2019-01-20T08:27:47.329Z,98884.84
2019-01-20T08:30:20.773Z,98891.92
2019-01-20T08:32:49.150Z,98896.63
2019-01-20T08:35:17.675Z,98889.55
2019-01-20T08:37:46.056Z,98902.55
2019-01-20T08:40:16.877Z,98902.45
2019-01-20T08:42:45.269Z,98908.94
2019-01-20T08:45:22.689Z,98910.15
2019-01-20T08:47:53.014Z,98908.83
2019-01-20T08:50:21.384Z,98918.14
2019-01-20T08:52:49.764Z,98921.78
2019-01-20T08:55:18.128Z,98927.50
2019-01-20T08:57:46.517Z,98924.22
2019-01-20T09:00:16.437Z,98927.14
2019-01-20T09:02:44.887Z,98923.36
2019-01-20T09:05:13.898Z,98927.50
2019-01-20T09:07:42.279Z,98927.50
2019-01-20T09:10:13.701Z,98927.39
2019-01-20T09:12:42.360Z,98932.59
2019-01-20T09:15:10.735Z,98935.42
2019-01-20T09:17:39.101Z,98937.74
2019-01-20T09:20:11.403Z,98943.77
2019-01-20T09:22:39.772Z,98947.05
2019-01-20T09:25:10.999Z,98948.05
2019-01-20T09:27:39.436Z,98949.16
2019-01-20T09:30:14.385Z,98955.63
2019-01-20T09:32:42.752Z,98949.66
2019-01-20T09:35:11.577Z,98956.34
2019-01-20T09:37:39.943Z,98962.05
2019-01-20T09:40:11.513Z,98959.22
2019-01-20T09:42:39.888Z,98962.40
2019-01-20T09:45:13.819Z,98962.97
2019-01-20T09:47:42.191Z,98968.43
2019-01-20T09:50:10.710Z,98970.28
2019-01-20T09:52:39.084Z,98969.50
2019-01-20T09:55:10.510Z,98972.21
2019-01-20T09:57:38.947Z,98975.10
2019-01-20T10:00:12.968Z,98976.70
2019-01-20T10:02:41.340Z,98976.59
2019-01-20T10:05:10.558Z,98985.27
2019-01-20T10:07:38.934Z,98986.59
2019-01-20T10:10:10.623Z,98988.05
2019-01-20T10:12:38.994Z,98984.09
2019-01-20T10:15:10.220Z,98979.66
2019-01-20T10:17:38.895Z,98985.94
2019-01-20T10:20:13.378Z,98986.44
2019-01-20T10:22:41.741Z,98987.66
2019-01-20T10:25:15.082Z,98985.37
2019-01-20T10:27:40.220Z,98995.00
2019-01-20T10:30:14.825Z,98997.64
2019-01-20T10:32:47.915Z,98997.89
2019-01-20T10:35:13.629Z,99001.86
2019-01-20T10:37:42.068Z,99000.17
2019-01-20T10:40:10.520Z,98995.00
2019-01-20T10:42:39.084Z,98999.96
2019-01-20T10:45:09.708Z,99003.06
2019-01-20T10:47:39.101Z,99003.17
2019-01-20T10:50:13.520Z,99006.27
2019-01-20T10:52:41.891Z,99007.20
2019-01-20T10:55:10.258Z,99006.27
2019-01-20T10:57:39.195Z,99007.48
2019-01-20T11:00:19.532Z,99002.59
2019-01-20T11:02:47.891Z,98999.09
2019-01-20T11:05:16.500Z,99003.42
2019-01-20T11:07:44.866Z,99002.20
2019-01-20T11:10:13.379Z,99006.06
2019-01-20T11:12:41.769Z,99003.06
2019-01-20T11:15:12.774Z,99005.59
2019-01-20T11:17:41.150Z,99007.38
2019-01-20T11:20:12.163Z,99015.30
2019-01-20T11:22:40.619Z,99013.52
2019-01-20T11:25:12.502Z,99013.62
2019-01-20T11:27:41.457Z,99016.84
2019-01-20T11:30:12.336Z,99019.88
2019-01-20T11:32:42.403Z,99011.95
2019-01-20T11:35:14.120Z,99017.27
2019-01-20T11:37:42.498Z,99011.98
2019-01-20T11:40:12.324Z,99012.88
2019-01-20T11:42:40.707Z,99015.52
2019-01-20T11:45:21.056Z,99010.23
2019-01-20T11:47:49.511Z,99016.84
2019-01-20T11:50:18.016Z,99019.27
2019-01-20T11:52:46.399Z,99015.70
2019-01-20T11:55:23.018Z,99017.16
2019-01-20T11:57:51.670Z,99022.14
2019-01-20T12:00:23.085Z,99015.13
2019-01-20T12:02:51.726Z,99018.98
2019-01-20T12:05:20.831Z,99010.77
2019-01-20T12:07:49.447Z,99016.52
2019-01-20T12:10:17.955Z,99010.77
2019-01-20T12:12:54.230Z,99009.84
2019-01-20T12:15:22.608Z,99017.84
2019-01-20T12:17:50.999Z,99016.05
2019-01-20T12:20:19.450Z,99012.09
2019-01-20T12:22:47.829Z,99013.80
2019-01-20T12:25:20.511Z,99011.88
2019-01-20T12:27:48.893Z,99009.23
2019-01-20T12:30:22.931Z,99012.27
2019-01-20T12:32:51.303Z,98992.49
2019-01-20T12:35:19.670Z,99006.30
2019-01-20T12:37:48.055Z,99003.16
2019-01-20T12:40:25.151Z,99005.33
2019-01-20T12:42:53.526Z,99006.19
2019-01-20T12:45:21.975Z,99004.47
2019-01-20T12:47:50.359Z,99000.16
2019-01-20T12:50:19.278Z,98999.94
2019-01-20T12:52:47.643Z,98994.66
2019-01-20T12:55:16.932Z,98999.47
2019-01-20T12:57:45.308Z,98992.87
2019-01-20T13:00:18.834Z,98995.29
2019-01-20T13:02:47.284Z,98997.47
2019-01-20T13:05:15.813Z,99003.61
2019-01-20T13:07:44.355Z,98999.83
2019-01-20T13:10:15.275Z,99000.33
2019-01-20T13:12:43.781Z,98998.16
2019-01-20T13:15:14.984Z,98998.05
2019-01-20T13:17:43.350Z,98999.94
2019-01-20T13:20:27.125Z,99003.80
2019-01-20T13:22:55.508Z,99002.22
2019-01-20T13:25:26.373Z,99004.86
2019-01-20T13:27:54.917Z,98998.90
2019-01-20T13:30:28.239Z,99002.28
2019-01-20T13:32:56.681Z,99003.96
2019-01-20T13:35:25.906Z,99002.64
2019-01-20T13:37:57.512Z,99003.96
2019-01-20T13:40:29.304Z,99002.64
2019-01-20T13:42:57.676Z,99006.25
2019-01-20T13:45:26.057Z,99005.39
2019-01-20T13:47:54.417Z,98999.25
2019-01-20T13:50:22.804Z,99005.28
2019-01-20T13:52:51.191Z,99002.28
2019-01-20T13:55:19.589Z,99009.47
2019-01-20T13:57:47.961Z,99002.97
2019-01-20T14:00:21.921Z,99016.53
2019-01-20T14:02:50.310Z,99012.79
2019-01-20T14:05:18.699Z,99014.22
2019-01-20T14:07:47.063Z,99006.87
2019-01-20T14:10:18.354Z,99009.62
2019-01-20T14:12:46.721Z,99018.48
2019-01-20T14:15:16.437Z,99009.09
2019-01-20T14:17:45.847Z,99013.05
2019-01-20T14:20:17.277Z,99016.16
2019-01-20T14:22:45.646Z,99014.84
2019-01-20T14:25:16.763Z,99012.66
2019-01-20T14:27:45.205Z,99016.27
2019-01-20T14:30:28.272Z,99019.02
2019-01-20T14:32:56.659Z,99016.84
2019-01-20T14:35:25.255Z,99014.59
2019-01-20T14:37:53.634Z,99020.63
2019-01-20T14:40:22.282Z,99023.73
2019-01-20T14:42:51.793Z,99019.38
2019-01-20T14:45:20.310Z,99016.02
2019-01-20T14:47:48.963Z,99016.02
2019-01-20T14:50:20.418Z,99011.78
2019-01-20T14:52:48.878Z,99018.84
2019-01-20T14:55:17.392Z,99014.63
2019-01-20T14:57:45.839Z,99014.63
2019-01-20T15:00:26.349Z,99023.70
2019-01-20T15:02:54.725Z,99018.91
2019-01-20T15:05:23.099Z,99021.05
2019-01-20T15:07:51.482Z,99020.30
2019-01-20T15:10:19.850Z,99024.87
2019-01-20T15:12:48.236Z,99031.08
2019-01-20T15:15:19.416Z,99024.72
2019-01-20T15:17:47.796Z,99024.72
2019-01-20T15:20:16.602Z,99037.14
2019-01-20T15:22:48.133Z,99045.81
2019-01-20T15:25:18.811Z,99049.78
2019-01-20T15:27:47.536Z,99044.20
2019-01-20T15:30:18.984Z,99054.30
2019-01-20T15:32:48.240Z,99054.20
2019-01-20T15:35:16.777Z,99059.59
2019-01-20T15:37:45.351Z,99067.51
2019-01-20T15:40:22.175Z,99064.87
2019-01-20T15:42:50.566Z,99068.47
2019-01-20T15:45:20.881Z,99074.67
2019-01-20T15:47:50.627Z,99072.53
2019-01-20T15:50:24.764Z,99074.02
2019-01-20T15:52:53.376Z,99077.91
2019-01-20T15:55:21.754Z,99072.34
2019-01-20T15:57:50.143Z,99082.05
2019-01-20T16:00:26.962Z,99073.88
2019-01-20T16:02:55.346Z,99076.05
2019-01-20T16:05:25.159Z,99066.83
2019-01-20T16:07:53.950Z,99066.83
2019-01-20T16:10:22.621Z,99084.04
2019-01-20T16:12:51.083Z,99078.87
2019-01-20T16:15:31.080Z,99083.78
2019-01-20T16:17:59.465Z,99086.06
2019-01-20T16:20:28.631Z,99094.91
2019-01-20T16:22:57.245Z,99093.59
2019-01-20T16:25:28.638Z,99096.70
2019-01-20T16:27:57.086Z,99098.97
2019-01-20T16:30:28.191Z,99101.15
2019-01-20T16:32:56.798Z,99107.35
2019-01-20T16:35:26.114Z,99110.20
2019-01-20T16:37:55.541Z,99110.66
2019-01-20T16:40:25.461Z,99110.77
2019-01-20T16:42:53.899Z,99117.75
2019-01-20T16:45:32.983Z,99115.22
2019-01-20T16:47:57.995Z,99120.00
2019-01-20T16:50:26.822Z,99121.88
2019-01-20T16:52:55.306Z,99119.74
2019-01-20T16:55:24.191Z,99130.77
2019-01-20T16:57:52.567Z,99137.00
2019-01-20T17:00:23.930Z,99140.20
2019-01-20T17:02:52.860Z,99143.87
2019-01-20T17:05:21.323Z,99150.46
2019-01-20T17:07:49.691Z,99148.88
2019-01-20T17:10:20.231Z,99152.45
2019-01-20T17:12:48.606Z,99158.12
2019-01-20T17:15:19.945Z,99153.77
2019-01-20T17:17:48.382Z,99156.80
2019-01-20T17:20:17.620Z,99153.86
2019-01-20T17:22:47.111Z,99163.59
2019-01-20T17:25:16.937Z,99163.59
2019-01-20T17:27:45.729Z,99169.80
2019-01-20T17:30:25.775Z,99163.77
2019-01-20T17:32:54.418Z,99170.00
2019-01-20T17:35:22.806Z,99170.95
2019-01-20T17:37:51.423Z,99174.91
2019-01-20T17:40:27.995Z,99175.38
2019-01-20T17:42:56.558Z,99172.34
2019-01-20T17:45:27.738Z,99174.16
2019-01-20T17:47:56.225Z,99179.44
2019-01-20T17:50:33.093Z,99176.03
2019-01-20T17:53:01.550Z,99174.81
2019-01-20T17:55:30.039Z,99184.52
2019-01-20T17:57:58.504Z,99177.72
2019-01-20T18:00:30.594Z,99191.67
2019-01-20T18:02:59.057Z,99197.44
2019-01-20T18:05:27.564Z,99197.14
2019-01-20T18:07:55.965Z,99202.98
2019-01-20T18:10:24.512Z,99201.72
2019-01-20T18:12:53.438Z,99208.31
2019-01-20T18:15:24.332Z,99208.87
2019-01-20T18:17:52.720Z,99204.55
2019-01-20T18:20:29.182Z,99210.69
2019-01-20T18:22:57.702Z,99215.47
2019-01-20T18:25:26.153Z,99222.56
2019-01-20T18:27:54.610Z,99229.61
2019-01-20T18:30:28.310Z,99225.30
2019-01-20T18:32:56.745Z,99228.39
2019-01-20T18:35:26.351Z,99224.53
2019-01-20T18:37:54.746Z,99224.23
2019-01-20T18:40:24.554Z,99225.55
2019-01-20T18:42:52.939Z,99229.97
2019-01-20T18:45:23.997Z,99234.78
2019-01-20T18:47:52.384Z,99237.88
2019-01-20T18:50:26.641Z,99246.65
2019-01-20T18:52:55.098Z,99248.43
2019-01-20T18:55:23.485Z,99247.20
2019-01-20T18:57:51.861Z,99254.66
2019-01-20T19:00:35.215Z,99256.08
2019-01-20T19:03:03.765Z,99252.98
2019-01-20T19:05:32.220Z,99255.70
2019-01-20T19:08:00.599Z,99253.14
2019-01-20T19:10:28.972Z,99254.45
2019-01-20T19:12:57.358Z,99252.77
2019-01-20T19:15:25.799Z,99260.22
2019-01-20T19:17:54.181Z,99264.18
2019-01-20T19:20:24.872Z,99263.78
2019-01-20T19:22:55.958Z,99266.41
2019-01-20T19:25:24.668Z,99263.97
2019-01-20T19:27:53.131Z,99268.33
2019-01-20T19:30:30.134Z,99272.28
2019-01-20T19:32:58.518Z,99273.60
2019-01-20T19:35:28.309Z,99276.30
2019-01-20T19:37:56.803Z,99282.53
2019-01-20T19:40:25.178Z,99282.62
2019-01-20T19:42:53.626Z,99291.94
2019-01-20T19:45:22.459Z,99285.35
2019-01-20T19:47:50.830Z,99291.09
2019-01-20T19:50:19.450Z,99292.95
2019-01-20T19:52:47.834Z,99290.81
2019-01-20T19:55:21.521Z,99298.72
2019-01-20T19:57:50.049Z,99300.50
2019-01-20T20:00:26.764Z,99301.42
2019-01-20T20:02:55.212Z,99302.56
2019-01-20T20:05:23.739Z,99300.78
2019-01-20T20:07:53.231Z,99305.02
2019-01-20T20:10:24.429Z,99304.80
2019-01-20T20:12:54.788Z,99308.02
2019-01-20T20:15:25.059Z,99304.52
2019-01-20T20:17:53.598Z,99308.02
2019-01-20T20:20:22.218Z,99311.58
2019-01-20T20:22:50.595Z,99314.77
2019-01-20T20:25:21.379Z,99316.08
2019-01-20T20:27:49.886Z,99323.26
2019-01-20T20:30:24.338Z,99317.22
2019-01-20T20:32:52.710Z,99330.41
2019-01-20T20:35:21.087Z,99333.28
2019-01-20T20:37:49.465Z,99337.08
2019-01-20T20:40:19.583Z,99338.55
2019-01-20T20:42:48.200Z,99336.31
2019-01-20T20:45:21.914Z,99342.50
2019-01-20T20:47:50.461Z,99349.59
2019-01-20T20:50:19.029Z,99353.14
2019-01-20T20:52:47.480Z,99353.91
2019-01-20T20:55:15.936Z,99359.27
2019-01-20T20:57:44.484Z,99363.69
2019-01-20T21:00:30.965Z,99361.45
2019-01-20T21:03:01.289Z,99369.36
2019-01-20T21:05:29.674Z,99368.59
2019-01-20T21:07:58.043Z,99373.50
2019-01-20T21:10:26.427Z,99372.17
2019-01-20T21:12:54.803Z,99375.27
2019-01-20T21:15:23.178Z,99378.00
2019-01-20T21:17:51.559Z,99376.68
2019-01-20T21:20:22.027Z,99376.68
2019-01-20T21:22:50.609Z,99375.55
2019-01-20T21:25:18.993Z,99376.09
2019-01-20T21:27:47.369Z,99381.36
2019-01-20T21:30:18.296Z,99384.09
2019-01-20T21:32:46.659Z,99384.09
2019-01-20T21:35:15.882Z,99388.09
2019-01-20T21:37:44.775Z,99389.05
2019-01-20T21:40:15.722Z,99390.09
2019-01-20T21:42:44.658Z,99394.41
2019-01-20T21:45:14.476Z,99391.41
2019-01-20T21:47:42.846Z,99397.59
2019-01-20T21:50:14.513Z,99403.41
2019-01-20T21:52:42.891Z,99402.27
2019-01-20T21:55:11.410Z,99402.72
2019-01-20T21:57:39.783Z,99411.12
2019-01-20T22:00:11.472Z,99409.89
2019-01-20T22:02:39.863Z,99418.16
2019-01-20T22:05:09.897Z,99423.06
2019-01-20T22:07:38.273Z,99421.44
2019-01-20T22:10:20.367Z,99431.97
2019-01-20T22:12:48.910Z,99433.01
2019-01-20T22:15:17.620Z,99437.87
2019-01-20T22:17:46.940Z,99438.33
2019-01-20T22:20:20.191Z,99437.97
2019-01-20T22:22:48.782Z,99442.95
2019-01-20T22:25:17.156Z,99448.22
2019-01-20T22:27:45.607Z,99439.55
2019-01-20T22:30:24.849Z,99448.36
2019-01-20T22:32:53.363Z,99444.90
2019-01-20T22:35:21.830Z,99448.50
2019-01-20T22:37:50.264Z,99449.12
2019-01-20T22:40:19.284Z,99446.90
2019-01-20T22:42:47.948Z,99450.16
2019-01-20T22:45:43.080Z,99453.63
2019-01-20T22:48:11.455Z,99454.20
2019-01-20T22:50:39.828Z,99456.42
2019-01-20T22:53:08.217Z,99455.57
2019-01-20T22:55:36.589Z,99456.89
2019-01-20T22:58:04.998Z,99456.52
2019-01-20T23:00:43.925Z,99453.51
2019-01-20T23:03:12.292Z,99453.02
2019-01-20T23:05:40.665Z,99454.83
2019-01-20T23:08:09.041Z,99458.38
2019-01-20T23:10:37.410Z,99454.14
2019-01-20T23:13:05.983Z,99461.55
2019-01-20T23:15:34.379Z,99472.08
2019-01-20T23:18:02.957Z,99471.25
2019-01-20T23:20:31.324Z,99465.67
2019-01-20T23:22:59.708Z,99465.21
2019-01-20T23:25:28.070Z,99464.35
2019-01-20T23:27:56.483Z,99464.81
2019-01-20T23:30:24.896Z,99471.02
2019-01-20T23:32:53.282Z,99474.11
2019-01-20T23:35:21.653Z,99474.69
2019-01-20T23:37:50.042Z,99475.05
2019-01-20T23:40:18.583Z,99470.25
2019-01-20T23:42:46.967Z,99475.14
2019-01-20T23:45:15.605Z,99470.50
2019-01-20T23:47:43.995Z,99471.73
2019-01-20T23:50:14.190Z,99467.86
2019-01-20T23:52:42.656Z,99472.76
2019-01-20T23:55:14.235Z,99474.62
2019-01-20T23:57:42.696Z,99475.85
